createdAt,value
2019-03-09T00:00:41.597Z,3.10
2019-03-09T00:01:41.718Z,3.20
2019-03-09T00:02:41.839Z,3.50
2019-03-09T00:03:41.966Z,3.30
2019-03-09T00:04:42.096Z,3.00
2019-03-09T00:05:42.225Z,3.20
2019-03-09T00:06:42.340Z,3.40
2019-03-09T00:07:42.459Z,3.40
2019-03-09T00:08:42.592Z,3.60
2019-03-09T00:09:42.719Z,3.60
2019-03-09T00:10:42.835Z,3.30
2019-03-09T00:11:43.013Z,3.10
2019-03-09T00:12:43.046Z,3.20
2019-03-09T00:13:43.164Z,2.80
2019-03-09T00:14:43.291Z,3.30
2019-03-09T00:15:43.424Z,3.00
2019-03-09T00:16:43.547Z,3.40
2019-03-09T00:17:43.659Z,3.30
2019-03-09T00:18:43.790Z,3.60
2019-03-09T00:19:44.048Z,3.70
2019-03-09T00:20:44.082Z,3.20
2019-03-09T00:21:44.210Z,3.70
2019-03-09T00:22:44.326Z,3.30
2019-03-09T00:23:44.455Z,3.20
2019-03-09T00:24:44.591Z,3.60
2019-03-09T00:25:44.718Z,3.20
2019-03-09T00:26:44.857Z,3.60
2019-03-09T00:27:44.980Z,3.20
2019-03-09T00:28:45.107Z,3.30
2019-03-09T00:29:45.248Z,3.40
2019-03-09T00:30:45.364Z,2.80
2019-03-09T00:31:45.491Z,3.10
2019-03-09T00:32:45.642Z,3.50
2019-03-09T00:33:45.764Z,3.30
2019-03-09T00:34:45.888Z,3.50
2019-03-09T00:35:46.015Z,3.10
2019-03-09T00:36:46.170Z,3.40
2019-03-09T00:37:46.283Z,3.00
2019-03-09T00:38:46.410Z,3.10
2019-03-09T00:39:46.539Z,3.60
2019-03-09T00:40:46.661Z,3.20
2019-03-09T00:41:46.806Z,3.50
2019-03-09T00:42:46.911Z,3.10
2019-03-09T00:43:47.038Z,3.30
2019-03-09T00:44:47.173Z,3.40
2019-03-09T00:45:47.294Z,3.40
2019-03-09T00:46:47.419Z,3.20
2019-03-09T00:47:47.546Z,3.30
2019-03-09T00:48:47.666Z,3.30
2019-03-09T00:49:47.798Z,3.40
2019-03-09T00:50:47.914Z,3.00
2019-03-09T00:51:48.054Z,3.70
2019-03-09T00:52:48.166Z,3.70
2019-03-09T00:53:48.290Z,3.60
2019-03-09T00:54:48.408Z,3.50
2019-03-09T00:55:48.536Z,3.20
2019-03-09T00:56:48.660Z,3.60
2019-03-09T00:57:48.789Z,3.40
2019-03-09T00:58:48.905Z,3.40
2019-03-09T00:59:49.032Z,3.40
2019-03-09T01:00:49.155Z,3.80
2019-03-09T01:01:49.279Z,3.50
2019-03-09T01:02:51.085Z,3.40
2019-03-09T01:03:49.530Z,3.50
2019-03-09T01:04:49.647Z,3.40
2019-03-09T01:05:49.774Z,3.60
2019-03-09T01:06:49.908Z,3.50
2019-03-09T01:07:50.052Z,3.40
2019-03-09T01:08:50.150Z,3.20
2019-03-09T01:09:50.258Z,3.30
2019-03-09T01:10:50.379Z,3.40
2019-03-09T01:11:50.504Z,3.20
2019-03-09T01:12:50.658Z,3.40
2019-03-09T01:13:50.800Z,3.20
2019-03-09T01:14:50.924Z,3.20
2019-03-09T01:15:51.059Z,3.50
2019-03-09T01:16:51.185Z,3.30
2019-03-09T01:17:51.312Z,3.10
2019-03-09T01:18:51.439Z,3.30
2019-03-09T01:19:51.562Z,3.40
2019-03-09T01:20:51.690Z,3.80
2019-03-09T01:21:51.811Z,3.00
2019-03-09T01:22:51.938Z,3.70
2019-03-09T01:23:52.063Z,3.40
2019-03-09T01:24:52.199Z,3.40
2019-03-09T01:25:52.319Z,3.50
2019-03-09T01:26:52.444Z,3.30
2019-03-09T01:27:52.578Z,3.50
2019-03-09T01:28:52.697Z,3.50
2019-03-09T01:29:52.836Z,3.40
2019-03-09T01:30:52.960Z,3.20
2019-03-09T01:31:53.086Z,3.50
2019-03-09T01:32:53.217Z,3.30
2019-03-09T01:33:53.342Z,3.50
2019-03-09T01:34:53.460Z,3.30
2019-03-09T01:35:53.591Z,3.10
2019-03-09T01:36:53.712Z,3.10
2019-03-09T01:37:53.842Z,3.20
2019-03-09T01:38:53.976Z,3.00
2019-03-09T01:39:54.110Z,3.30
2019-03-09T01:40:54.228Z,3.50
2019-03-09T01:41:54.357Z,3.70
2019-03-09T01:42:54.476Z,3.40
2019-03-09T01:43:54.612Z,2.80
2019-03-09T01:44:54.731Z,3.30
2019-03-09T01:45:54.861Z,3.10
2019-03-09T01:46:54.986Z,3.40
2019-03-09T01:47:55.111Z,3.40
2019-03-09T01:48:55.240Z,3.30
2019-03-09T01:49:55.371Z,3.20
2019-03-09T01:50:55.489Z,3.50
2019-03-09T01:51:55.621Z,3.10
2019-03-09T01:52:55.740Z,3.10
2019-03-09T01:53:55.872Z,3.10
2019-03-09T01:54:55.989Z,3.20
2019-03-09T01:55:56.113Z,3.20
2019-03-09T01:56:56.256Z,3.30
2019-03-09T01:57:56.381Z,3.50
2019-03-09T01:58:56.498Z,3.00
2019-03-09T01:59:56.634Z,3.40
2019-03-09T02:00:56.752Z,3.10
2019-03-09T02:01:56.883Z,3.50
2019-03-09T02:02:57.001Z,3.10
2019-03-09T02:03:57.128Z,3.50
2019-03-09T02:04:57.253Z,3.10
2019-03-09T02:05:57.381Z,3.10
2019-03-09T02:06:57.508Z,3.10
2019-03-09T02:07:57.639Z,3.20
2019-03-09T02:08:57.756Z,3.30
2019-03-09T02:09:57.896Z,2.90
2019-03-09T02:10:58.032Z,3.00
2019-03-09T02:11:58.144Z,3.10
2019-03-09T02:12:58.270Z,3.10
2019-03-09T02:13:58.405Z,2.90
2019-03-09T02:14:58.520Z,3.10
2019-03-09T02:15:58.647Z,3.20
2019-03-09T02:16:58.777Z,3.40
2019-03-09T02:17:58.905Z,2.70
2019-03-09T02:18:59.027Z,3.30
2019-03-09T02:19:59.154Z,3.00
2019-03-09T02:20:59.276Z,3.00
2019-03-09T02:21:59.401Z,3.10
2019-03-09T02:22:59.519Z,2.80
2019-03-09T02:23:59.656Z,2.70
2019-03-09T02:24:59.784Z,3.10
2019-03-09T02:25:59.902Z,2.90
2019-03-09T02:27:00.028Z,3.20
2019-03-09T02:28:00.152Z,2.80
2019-03-09T02:29:01.063Z,3.00
2019-03-09T02:30:00.740Z,3.30
2019-03-09T02:31:00.526Z,3.10
2019-03-09T02:32:00.648Z,3.10
2019-03-09T02:33:00.788Z,3.20
2019-03-09T02:34:00.903Z,2.90
2019-03-09T02:35:01.040Z,2.90
2019-03-09T02:36:01.170Z,2.90
2019-03-09T02:37:01.284Z,3.00
2019-03-09T02:38:01.409Z,3.10
2019-03-09T02:39:01.548Z,3.20
2019-03-09T02:40:01.662Z,3.10
2019-03-09T02:41:01.784Z,2.70
2019-03-09T02:42:01.910Z,2.80
2019-03-09T02:43:02.048Z,3.10
2019-03-09T02:44:02.157Z,2.80
2019-03-09T02:45:02.288Z,3.20
2019-03-09T02:46:02.405Z,3.00
2019-03-09T02:47:02.537Z,3.00
2019-03-09T02:48:02.673Z,2.90
2019-03-09T02:49:02.792Z,3.00
2019-03-09T02:50:02.922Z,2.70
2019-03-09T02:51:03.048Z,2.90
2019-03-09T02:52:03.169Z,2.60
2019-03-09T02:53:03.299Z,2.80
2019-03-09T02:54:03.424Z,3.00
2019-03-09T02:55:03.538Z,2.90
2019-03-09T02:56:03.669Z,3.00
2019-03-09T02:57:03.799Z,2.80
2019-03-09T02:58:03.927Z,3.10
2019-03-09T02:59:04.049Z,2.40
2019-03-09T03:00:04.168Z,2.70
2019-03-09T03:01:04.298Z,3.10
2019-03-09T03:02:04.422Z,2.90
2019-03-09T03:03:04.551Z,3.10
2019-03-09T03:04:04.677Z,2.70
2019-03-09T03:05:04.801Z,3.10
2019-03-09T03:06:04.923Z,2.80
2019-03-09T03:07:05.054Z,3.10
2019-03-09T03:08:05.176Z,2.60
2019-03-09T03:09:05.309Z,2.50
2019-03-09T03:10:05.425Z,2.60
2019-03-09T03:11:05.558Z,2.80
2019-03-09T03:12:05.678Z,3.10
2019-03-09T03:13:05.805Z,2.80
2019-03-09T03:14:05.937Z,2.60
2019-03-09T03:15:06.056Z,2.70
2019-03-09T03:16:06.211Z,2.50
2019-03-09T03:17:06.305Z,2.80
2019-03-09T03:18:06.438Z,2.90
2019-03-09T03:19:06.554Z,2.90
2019-03-09T03:20:06.689Z,2.80
2019-03-09T03:21:06.817Z,2.50
2019-03-09T03:22:06.937Z,2.60
2019-03-09T03:23:07.067Z,3.10
2019-03-09T03:24:07.193Z,2.80
2019-03-09T03:25:07.330Z,2.80
2019-03-09T03:26:07.446Z,2.80
2019-03-09T03:27:07.572Z,2.80
2019-03-09T03:28:07.696Z,2.90
2019-03-09T03:29:07.826Z,2.90
2019-03-09T03:30:07.949Z,2.90
2019-03-09T03:31:08.084Z,3.10
2019-03-09T03:32:08.204Z,2.90
2019-03-09T03:33:08.332Z,3.20
2019-03-09T03:34:08.452Z,3.10
2019-03-09T03:35:08.589Z,3.10
2019-03-09T03:36:08.704Z,2.90
2019-03-09T03:37:08.835Z,3.10
2019-03-09T03:38:08.959Z,3.10
2019-03-09T03:39:09.087Z,2.90
2019-03-09T03:40:09.207Z,3.30
2019-03-09T03:41:09.338Z,3.00
2019-03-09T03:42:09.463Z,3.30
2019-03-09T03:43:09.584Z,2.60
2019-03-09T03:44:09.718Z,2.70
2019-03-09T03:45:09.843Z,3.10
2019-03-09T03:46:09.967Z,3.10
2019-03-09T03:47:10.100Z,2.60
2019-03-09T03:48:10.221Z,3.40
2019-03-09T03:49:10.346Z,2.80
2019-03-09T03:50:10.474Z,2.80
2019-03-09T03:51:10.596Z,2.90
2019-03-09T03:52:10.767Z,2.60
2019-03-09T03:53:10.894Z,2.70
2019-03-09T03:54:11.012Z,3.30
2019-03-09T03:55:11.139Z,3.20
2019-03-09T03:56:11.288Z,2.70
2019-03-09T03:57:11.388Z,2.50
2019-03-09T03:58:11.539Z,2.70
2019-03-09T03:59:11.662Z,3.10
2019-03-09T04:00:11.802Z,3.00
2019-03-09T04:01:11.929Z,2.70
2019-03-09T04:02:12.053Z,2.90
2019-03-09T04:03:12.179Z,2.90
2019-03-09T04:04:12.300Z,3.20
2019-03-09T04:05:12.460Z,3.10
2019-03-09T04:06:12.582Z,3.10
2019-03-09T04:07:12.700Z,3.20
2019-03-09T04:08:12.822Z,3.30
2019-03-09T04:09:12.968Z,2.90
2019-03-09T04:10:13.103Z,3.50
2019-03-09T04:11:13.238Z,2.60
2019-03-09T04:12:13.353Z,3.20
2019-03-09T04:13:13.527Z,3.10
2019-03-09T04:14:13.605Z,3.30
2019-03-09T04:15:13.733Z,3.00
2019-03-09T04:16:13.852Z,3.50
2019-03-09T04:17:14.133Z,3.20
2019-03-09T04:18:14.116Z,3.80
2019-03-09T04:19:14.240Z,3.30
2019-03-09T04:20:14.371Z,3.70
2019-03-09T04:21:14.527Z,3.30
2019-03-09T04:22:14.649Z,3.50
2019-03-09T04:23:14.845Z,3.60
2019-03-09T04:24:14.935Z,3.70
2019-03-09T04:25:15.041Z,3.50
2019-03-09T04:26:15.166Z,3.70
2019-03-09T04:27:15.288Z,3.40
2019-03-09T04:28:15.417Z,3.50
2019-03-09T04:29:15.539Z,3.50
2019-03-09T04:30:15.678Z,3.60
2019-03-09T04:31:15.825Z,3.80
2019-03-09T04:32:15.937Z,3.30
2019-03-09T04:33:16.058Z,3.80
2019-03-09T04:34:16.192Z,3.50
2019-03-09T04:35:16.315Z,3.50
2019-03-09T04:36:16.454Z,3.50
2019-03-09T04:37:16.566Z,3.40
2019-03-09T04:38:16.701Z,3.30
2019-03-09T04:39:16.820Z,3.40
2019-03-09T04:40:16.955Z,3.40
2019-03-09T04:41:17.090Z,3.30
2019-03-09T04:42:17.203Z,3.50
2019-03-09T04:43:17.325Z,3.10
2019-03-09T04:44:17.449Z,3.40
2019-03-09T04:45:17.596Z,3.20
2019-03-09T04:46:17.709Z,3.20
2019-03-09T04:47:17.840Z,3.60
2019-03-09T04:48:17.963Z,4.10
2019-03-09T04:49:18.080Z,3.60
2019-03-09T04:50:18.214Z,3.40
2019-03-09T04:51:18.357Z,3.70
2019-03-09T04:52:18.482Z,3.40
2019-03-09T04:53:18.664Z,3.40
2019-03-09T04:54:18.724Z,3.40
2019-03-09T04:55:18.865Z,3.90
2019-03-09T04:56:18.993Z,3.60
2019-03-09T04:57:19.114Z,3.30
2019-03-09T04:58:19.257Z,3.40
2019-03-09T04:59:19.380Z,3.40
2019-03-09T05:00:19.503Z,3.50
2019-03-09T05:01:19.634Z,3.20
2019-03-09T05:02:19.786Z,3.50
2019-03-09T05:03:19.894Z,3.60
2019-03-09T05:04:20.025Z,3.20
2019-03-09T05:05:20.162Z,3.30
2019-03-09T05:06:20.277Z,3.20
2019-03-09T05:07:20.403Z,3.20
2019-03-09T05:08:20.530Z,3.50
2019-03-09T05:09:20.654Z,3.20
2019-03-09T05:10:20.801Z,3.20
2019-03-09T05:11:20.920Z,3.00
2019-03-09T05:12:21.048Z,3.00
2019-03-09T05:13:21.178Z,4.00
2019-03-09T05:14:21.328Z,2.70
2019-03-09T05:15:21.440Z,3.20
2019-03-09T05:16:21.569Z,3.20
2019-03-09T05:17:21.698Z,2.70
2019-03-09T05:18:21.831Z,3.00
2019-03-09T05:19:21.956Z,2.80
2019-03-09T05:20:22.078Z,2.90
2019-03-09T05:21:22.203Z,3.20
2019-03-09T05:22:22.356Z,3.10
2019-03-09T05:23:22.485Z,3.00
2019-03-09T05:24:22.604Z,3.10
2019-03-09T05:25:22.730Z,2.90
2019-03-09T05:26:22.876Z,3.60
2019-03-09T05:27:22.963Z,3.30
2019-03-09T05:28:23.087Z,2.90
2019-03-09T05:29:23.225Z,2.90
2019-03-09T05:30:23.346Z,2.90
2019-03-09T05:31:23.479Z,2.80
2019-03-09T05:32:23.621Z,3.20
2019-03-09T05:33:23.745Z,2.70
2019-03-09T05:34:23.863Z,3.00
2019-03-09T05:35:24.005Z,2.80
2019-03-09T05:36:24.163Z,2.80
2019-03-09T05:37:24.247Z,2.70
2019-03-09T05:38:24.383Z,2.70
2019-03-09T05:39:24.501Z,3.00
2019-03-09T05:40:24.630Z,2.80
2019-03-09T05:41:24.755Z,2.60
2019-03-09T05:42:24.889Z,3.00
2019-03-09T05:43:25.017Z,2.90
2019-03-09T05:44:25.134Z,3.00
2019-03-09T05:45:25.262Z,2.50
2019-03-09T05:46:25.490Z,2.80
2019-03-09T05:47:25.488Z,2.60
2019-03-09T05:48:25.614Z,2.30
2019-03-09T05:49:25.747Z,2.60
2019-03-09T05:50:25.880Z,2.50
2019-03-09T05:51:25.992Z,2.60
2019-03-09T05:52:26.119Z,2.50
2019-03-09T05:53:26.257Z,2.80
2019-03-09T05:54:26.383Z,2.70
2019-03-09T05:55:26.506Z,2.80
2019-03-09T05:56:26.632Z,2.90
2019-03-09T05:57:26.766Z,2.80
2019-03-09T05:58:26.885Z,2.50
2019-03-09T05:59:27.012Z,2.50
2019-03-09T06:00:27.134Z,2.80
2019-03-09T06:01:27.264Z,3.00
2019-03-09T06:02:27.391Z,2.50
2019-03-09T06:03:27.517Z,2.40
2019-03-09T06:04:27.656Z,2.40
2019-03-09T06:05:27.790Z,2.70
2019-03-09T06:06:27.916Z,2.40
2019-03-09T06:07:28.035Z,2.50
2019-03-09T06:08:28.161Z,2.60
2019-03-09T06:09:28.280Z,2.40
2019-03-09T06:10:28.414Z,2.50
2019-03-09T06:11:28.535Z,2.40
2019-03-09T06:12:28.666Z,2.20
2019-03-09T06:13:28.790Z,2.40
2019-03-09T06:14:28.919Z,2.80
2019-03-09T06:15:29.046Z,1.90
2019-03-09T06:16:29.180Z,2.10
2019-03-09T06:17:29.308Z,2.10
2019-03-09T06:18:29.431Z,2.50
2019-03-09T06:19:29.555Z,2.30
2019-03-09T06:20:29.683Z,2.20
2019-03-09T06:21:29.819Z,2.00
2019-03-09T06:22:29.942Z,2.10
2019-03-09T06:23:30.071Z,2.00
2019-03-09T06:24:30.195Z,2.20
2019-03-09T06:25:30.324Z,2.10
2019-03-09T06:26:30.454Z,1.90
2019-03-09T06:27:30.574Z,1.80
2019-03-09T06:28:30.709Z,2.00
2019-03-09T06:29:30.834Z,2.00
2019-03-09T06:30:30.955Z,1.70
2019-03-09T06:31:31.083Z,1.80
2019-03-09T06:32:31.203Z,1.70
2019-03-09T06:33:31.337Z,1.80
2019-03-09T06:34:31.463Z,1.60
2019-03-09T06:35:31.587Z,1.70
2019-03-09T06:36:31.714Z,1.70
2019-03-09T06:37:31.864Z,1.60
2019-03-09T06:38:31.988Z,1.60
2019-03-09T06:39:32.109Z,1.50
2019-03-09T06:40:32.232Z,1.40
2019-03-09T06:41:32.385Z,1.80
2019-03-09T06:42:32.507Z,1.60
2019-03-09T06:43:32.642Z,1.50
2019-03-09T06:44:32.788Z,1.50
2019-03-09T06:45:32.911Z,1.50
2019-03-09T06:46:33.048Z,1.60
2019-03-09T06:47:33.178Z,1.50
2019-03-09T06:48:33.295Z,1.60
2019-03-09T06:49:33.431Z,1.70
2019-03-09T06:50:33.570Z,1.70
2019-03-09T06:51:33.691Z,1.70
2019-03-09T06:52:33.816Z,1.80
2019-03-09T06:53:33.949Z,1.80
2019-03-09T06:54:34.074Z,1.60
2019-03-09T06:55:34.198Z,1.60
2019-03-09T06:56:34.327Z,1.50
2019-03-09T06:57:34.447Z,1.70
2019-03-09T06:58:34.572Z,1.50
2019-03-09T06:59:34.698Z,1.60
2019-03-09T07:00:34.858Z,1.60
2019-03-09T07:01:35.008Z,1.70
2019-03-09T07:02:35.135Z,1.60
2019-03-09T07:03:35.263Z,1.70
2019-03-09T07:04:35.390Z,1.40
2019-03-09T07:05:35.521Z,1.70
2019-03-09T07:06:35.656Z,1.60
2019-03-09T07:07:35.776Z,1.70
2019-03-09T07:08:35.903Z,1.60
2019-03-09T07:09:36.026Z,1.60
2019-03-09T07:10:36.176Z,1.60
2019-03-09T07:11:36.304Z,1.50
2019-03-09T07:12:36.423Z,1.60
2019-03-09T07:13:36.551Z,1.40
2019-03-09T07:14:36.682Z,1.50
2019-03-09T07:15:36.818Z,1.50
2019-03-09T07:16:36.946Z,1.20
2019-03-09T07:17:37.092Z,1.60
2019-03-09T07:18:37.211Z,1.70
2019-03-09T07:19:37.345Z,1.80
2019-03-09T07:20:37.460Z,1.50
2019-03-09T07:21:37.582Z,1.50
2019-03-09T07:22:37.721Z,1.60
2019-03-09T07:23:37.849Z,1.60
2019-03-09T07:24:37.974Z,1.60
2019-03-09T07:25:38.105Z,1.50
2019-03-09T07:26:38.229Z,1.60
2019-03-09T07:27:38.371Z,1.40
2019-03-09T07:28:38.494Z,1.40
2019-03-09T07:29:38.616Z,1.60
2019-03-09T07:30:38.768Z,1.40
2019-03-09T07:31:38.890Z,1.50
2019-03-09T07:32:39.025Z,1.60
2019-03-09T07:33:39.153Z,1.50
2019-03-09T07:34:39.277Z,1.40
2019-03-09T07:35:39.402Z,1.50
2019-03-09T07:36:39.527Z,1.50
2019-03-09T07:37:39.654Z,1.80
2019-03-09T07:38:39.783Z,1.40
2019-03-09T07:39:39.911Z,1.40
2019-03-09T07:40:40.029Z,1.40
2019-03-09T07:41:40.155Z,1.40
2019-03-09T07:42:40.312Z,1.40
2019-03-09T07:43:40.434Z,1.40
2019-03-09T07:44:40.563Z,1.60
2019-03-09T07:45:40.690Z,1.40
2019-03-09T07:46:40.853Z,1.50
2019-03-09T07:47:40.962Z,1.40
2019-03-09T07:48:41.087Z,1.40
2019-03-09T07:49:41.210Z,1.30
2019-03-09T07:50:41.406Z,1.20
2019-03-09T07:51:41.489Z,1.30
2019-03-09T07:52:41.617Z,1.20
2019-03-09T07:53:41.739Z,1.40
2019-03-09T07:54:41.868Z,1.90
2019-03-09T07:55:42.019Z,1.30
2019-03-09T07:56:42.127Z,1.40
2019-03-09T07:57:42.277Z,1.40
2019-03-09T07:58:42.404Z,1.30
2019-03-09T07:59:42.532Z,1.30
2019-03-09T08:00:42.653Z,1.40
2019-03-09T08:01:42.781Z,1.10
2019-03-09T08:02:42.912Z,1.20
2019-03-09T08:03:43.041Z,1.30
2019-03-09T08:04:43.192Z,1.20
2019-03-09T08:05:43.316Z,1.20
2019-03-09T08:06:43.449Z,1.20
2019-03-09T08:07:43.572Z,1.20
2019-03-09T08:08:43.714Z,1.30
2019-03-09T08:09:43.840Z,1.30
2019-03-09T08:10:43.966Z,1.40
2019-03-09T08:11:44.094Z,1.20
2019-03-09T08:12:44.270Z,1.50
2019-03-09T08:13:44.389Z,1.30
2019-03-09T08:14:44.507Z,1.10
2019-03-09T08:15:44.641Z,1.30
2019-03-09T08:16:44.783Z,1.50
2019-03-09T08:17:44.913Z,1.30
2019-03-09T08:18:45.380Z,1.40
2019-03-09T08:19:45.175Z,1.20
2019-03-09T08:20:45.291Z,1.30
2019-03-09T08:21:45.434Z,1.30
2019-03-09T08:22:45.571Z,1.30
2019-03-09T08:23:45.682Z,1.50
2019-03-09T08:24:45.811Z,1.50
2019-03-09T08:25:45.972Z,1.50
2019-03-09T08:26:46.071Z,1.20
2019-03-09T08:27:46.202Z,1.50
2019-03-09T08:28:46.335Z,1.50
2019-03-09T08:29:46.453Z,1.50
2019-03-09T08:30:46.588Z,1.40
2019-03-09T08:31:46.726Z,1.40
2019-03-09T08:32:46.899Z,1.50
2019-03-09T08:33:47.025Z,1.50
2019-03-09T08:34:47.153Z,1.60
2019-03-09T08:35:47.282Z,1.40
2019-03-09T08:36:47.437Z,1.50
2019-03-09T08:37:47.556Z,1.60
2019-03-09T08:38:47.715Z,1.60
2019-03-09T08:39:47.827Z,1.60
2019-03-09T08:40:47.971Z,1.50
2019-03-09T08:41:48.074Z,1.50
2019-03-09T08:42:48.262Z,1.40
2019-03-09T08:43:48.389Z,1.50
2019-03-09T08:44:48.531Z,1.60
2019-03-09T08:45:48.656Z,1.60
2019-03-09T08:46:48.823Z,1.50
2019-03-09T08:47:52.520Z,1.50
2019-03-09T08:48:49.084Z,1.50
2019-03-09T08:49:49.202Z,1.60
2019-03-09T08:50:49.356Z,1.80
2019-03-09T08:51:49.487Z,2.20
2019-03-09T08:52:49.653Z,1.60
2019-03-09T08:53:49.748Z,2.00
2019-03-09T08:54:49.888Z,1.60
2019-03-09T08:55:50.010Z,1.80
2019-03-09T08:56:50.126Z,1.90
2019-03-09T08:57:50.287Z,1.80
2019-03-09T08:58:50.382Z,1.60
2019-03-09T08:59:50.500Z,1.70
2019-03-09T09:00:50.668Z,1.30
2019-03-09T09:01:50.853Z,1.40
2019-03-09T09:02:50.912Z,1.40
2019-03-09T09:03:51.035Z,1.60
2019-03-09T09:04:51.163Z,1.80
2019-03-09T09:05:51.301Z,1.70
2019-03-09T09:06:51.441Z,1.50
2019-03-09T09:07:51.568Z,1.60
2019-03-09T09:08:51.712Z,1.60
2019-03-09T09:09:51.827Z,1.90
2019-03-09T09:10:51.962Z,1.80
2019-03-09T09:11:52.092Z,1.40
2019-03-09T09:12:52.223Z,1.60
2019-03-09T09:13:52.352Z,1.60
2019-03-09T09:14:52.509Z,2.00
2019-03-09T09:15:52.637Z,1.50
2019-03-09T09:16:52.764Z,1.70
2019-03-09T09:17:52.908Z,1.90
2019-03-09T09:18:53.040Z,1.90
2019-03-09T09:19:53.158Z,1.60
2019-03-09T09:20:53.282Z,1.50
2019-03-09T09:21:53.426Z,1.60
2019-03-09T09:22:53.555Z,1.90
2019-03-09T09:23:53.683Z,1.40
2019-03-09T09:24:53.807Z,1.40
2019-03-09T09:25:53.959Z,1.80
2019-03-09T09:26:54.084Z,1.80
2019-03-09T09:27:54.214Z,1.70
2019-03-09T09:28:54.346Z,1.70
2019-03-09T09:29:54.489Z,1.60
2019-03-09T09:30:54.618Z,1.70
2019-03-09T09:31:54.752Z,1.80
2019-03-09T09:32:54.879Z,1.70
2019-03-09T09:33:55.050Z,1.70
2019-03-09T09:34:55.171Z,1.80
2019-03-09T09:35:55.306Z,1.60
2019-03-09T09:36:55.425Z,1.80
2019-03-09T09:37:55.588Z,1.70
2019-03-09T09:38:55.778Z,1.70
2019-03-09T09:39:55.843Z,1.80
2019-03-09T09:40:55.977Z,1.90
2019-03-09T09:41:56.164Z,1.80
2019-03-09T09:42:56.271Z,1.80
2019-03-09T09:43:56.401Z,1.80
2019-03-09T09:44:56.524Z,1.70
2019-03-09T09:45:56.679Z,1.70
2019-03-09T09:46:56.806Z,1.50
2019-03-09T09:47:57.003Z,1.70
2019-03-09T09:48:57.074Z,1.70
2019-03-09T09:49:57.222Z,1.40
2019-03-09T09:50:57.367Z,1.70
2019-03-09T09:51:57.523Z,1.60
2019-03-09T09:52:57.630Z,1.60
2019-03-09T09:53:57.756Z,1.60
2019-03-09T09:54:57.885Z,1.60
2019-03-09T09:55:58.048Z,1.50
2019-03-09T09:56:58.170Z,1.50
2019-03-09T09:57:58.293Z,1.70
2019-03-09T09:58:58.422Z,1.50
2019-03-09T09:59:58.567Z,1.80
2019-03-09T10:00:58.746Z,1.60
2019-03-09T10:01:58.834Z,1.90
2019-03-09T10:02:58.959Z,2.30
2019-03-09T10:03:59.100Z,1.40
2019-03-09T10:04:59.231Z,1.50
2019-03-09T10:05:59.354Z,1.70
2019-03-09T10:06:59.489Z,1.60
2019-03-09T10:07:59.638Z,1.60
2019-03-09T10:08:59.772Z,1.70
2019-03-09T10:09:59.893Z,1.80
2019-03-09T10:11:00.020Z,2.00
2019-03-09T10:12:00.160Z,2.30
2019-03-09T10:13:00.277Z,2.90
2019-03-09T10:14:00.400Z,3.40
2019-03-09T10:15:00.560Z,1.90
2019-03-09T10:16:00.692Z,1.50
2019-03-09T10:17:00.807Z,1.40
2019-03-09T10:18:00.936Z,1.60
2019-03-09T10:19:01.069Z,1.50
2019-03-09T10:20:01.203Z,1.50
2019-03-09T10:21:01.337Z,1.40
2019-03-09T10:22:01.500Z,1.90
2019-03-09T10:23:04.690Z,1.70
2019-03-09T10:24:01.743Z,1.20
2019-03-09T10:25:01.892Z,1.50
2019-03-09T10:26:02.002Z,1.40
2019-03-09T10:27:02.135Z,1.40
2019-03-09T10:28:02.268Z,1.70
2019-03-09T10:29:02.426Z,1.60
2019-03-09T10:30:02.571Z,2.00
2019-03-09T10:31:02.676Z,1.70
2019-03-09T10:32:02.807Z,2.30
2019-03-09T10:33:02.981Z,2.20
2019-03-09T10:34:03.088Z,2.10
2019-03-09T10:35:03.216Z,1.70
2019-03-09T10:36:03.349Z,1.70
2019-03-09T10:37:03.490Z,1.50
2019-03-09T10:38:03.612Z,1.40
2019-03-09T10:39:03.751Z,1.30
2019-03-09T10:40:03.885Z,1.50
2019-03-09T10:41:04.033Z,1.50
2019-03-09T10:42:04.158Z,1.30
2019-03-09T10:43:04.297Z,1.10
2019-03-09T10:44:04.450Z,1.20
2019-03-09T10:45:04.590Z,1.20
2019-03-09T10:46:04.715Z,1.40
2019-03-09T10:47:04.883Z,1.20
2019-03-09T10:48:04.988Z,1.30
2019-03-09T10:49:05.128Z,1.30
2019-03-09T10:50:05.243Z,1.30
2019-03-09T10:51:05.409Z,1.40
2019-03-09T10:52:05.517Z,1.20
2019-03-09T10:53:05.672Z,1.40
2019-03-09T10:54:05.777Z,1.40
2019-03-09T10:55:05.920Z,1.10
2019-03-09T10:56:06.035Z,1.20
2019-03-09T10:57:06.159Z,1.60
2019-03-09T10:58:06.294Z,1.40
2019-03-09T10:59:06.467Z,1.50
2019-03-09T11:00:06.592Z,1.60
2019-03-09T11:01:06.720Z,1.60
2019-03-09T11:02:06.848Z,1.50
2019-03-09T11:03:07.039Z,1.40
2019-03-09T11:04:09.627Z,1.40
2019-03-09T11:05:07.291Z,1.20
2019-03-09T11:06:07.427Z,1.30
2019-03-09T11:07:07.567Z,1.20
2019-03-09T11:08:07.692Z,1.30
2019-03-09T11:09:07.813Z,1.40
2019-03-09T11:10:07.984Z,1.50
2019-03-09T11:11:08.113Z,1.40
2019-03-09T11:12:08.234Z,1.60
2019-03-09T11:13:08.378Z,1.60
2019-03-09T11:14:08.519Z,1.40
2019-03-09T11:15:08.646Z,2.50
2019-03-09T11:16:08.776Z,3.60
2019-03-09T11:17:08.910Z,4.20
2019-03-09T11:18:09.035Z,3.70
2019-03-09T11:19:09.179Z,3.20
2019-03-09T11:20:09.341Z,1.80
2019-03-09T11:21:09.455Z,2.90
2019-03-09T11:22:09.590Z,2.00
2019-03-09T11:23:09.722Z,1.50
2019-03-09T11:24:09.879Z,1.50
2019-03-09T11:25:10.001Z,1.50
2019-03-09T11:26:10.129Z,1.40
2019-03-09T11:27:10.260Z,2.10
2019-03-09T11:28:10.413Z,1.50
2019-03-09T11:29:10.545Z,1.60
2019-03-09T11:30:10.706Z,1.60
2019-03-09T11:31:10.829Z,1.60
2019-03-09T11:32:10.977Z,1.40
2019-03-09T11:33:11.094Z,1.50
2019-03-09T11:34:11.258Z,1.60
2019-03-09T11:35:11.376Z,1.40
2019-03-09T11:36:11.513Z,1.30
2019-03-09T11:37:11.639Z,1.40
2019-03-09T11:38:11.765Z,1.50
2019-03-09T11:39:11.892Z,1.30
2019-03-09T11:40:12.040Z,1.40
2019-03-09T11:41:19.004Z,1.30
2019-03-09T11:42:12.298Z,1.50
2019-03-09T11:43:12.427Z,1.20
2019-03-09T11:44:12.585Z,1.50
2019-03-09T11:45:12.742Z,1.50
2019-03-09T11:46:12.876Z,1.50
2019-03-09T11:47:12.997Z,1.30
2019-03-09T11:48:13.124Z,1.50
2019-03-09T11:49:13.260Z,1.60
2019-03-09T11:50:13.387Z,1.50
2019-03-09T11:51:13.523Z,1.50
2019-03-09T11:52:19.972Z,1.30
2019-03-09T11:53:13.804Z,1.20
2019-03-09T11:54:13.933Z,1.60
2019-03-09T11:55:14.065Z,1.40
2019-03-09T11:56:14.213Z,1.50
2019-03-09T11:57:14.356Z,1.70
2019-03-09T11:58:14.480Z,1.30
2019-03-09T11:59:14.608Z,1.50
2019-03-09T12:00:14.733Z,1.70
2019-03-09T12:01:14.855Z,1.50
2019-03-09T12:02:14.986Z,1.40
2019-03-09T12:03:15.116Z,1.60
2019-03-09T12:04:15.252Z,1.40
2019-03-09T12:05:15.379Z,1.30
2019-03-09T12:06:15.520Z,1.60
2019-03-09T12:07:15.659Z,1.30
2019-03-09T12:08:15.800Z,1.40
2019-03-09T12:09:15.917Z,1.30
2019-03-09T12:10:16.042Z,1.20
2019-03-09T12:11:16.165Z,1.40
2019-03-09T12:12:16.297Z,1.50
2019-03-09T12:13:16.436Z,1.40
2019-03-09T12:14:16.567Z,1.60
2019-03-09T12:15:16.701Z,1.40
2019-03-09T12:16:16.838Z,1.40
2019-03-09T12:17:16.977Z,1.50
2019-03-09T12:18:17.090Z,1.30
2019-03-09T12:19:17.242Z,1.50
2019-03-09T12:20:17.353Z,1.50
2019-03-09T12:21:17.486Z,1.20
2019-03-09T12:22:17.620Z,1.20
2019-03-09T12:23:17.749Z,1.50
2019-03-09T12:24:19.832Z,1.40
2019-03-09T12:25:18.017Z,1.50
2019-03-09T12:26:18.146Z,1.40
2019-03-09T12:27:18.266Z,1.40
2019-03-09T12:28:18.399Z,2.10
2019-03-09T12:29:18.533Z,1.50
2019-03-09T12:30:18.680Z,1.30
2019-03-09T12:31:18.817Z,1.30
2019-03-09T12:32:18.957Z,1.20
2019-03-09T12:33:19.078Z,1.40
2019-03-09T12:34:19.215Z,1.20
2019-03-09T12:35:19.342Z,1.30
2019-03-09T12:36:19.468Z,1.20
2019-03-09T12:37:19.602Z,1.50
2019-03-09T12:38:19.739Z,1.30
2019-03-09T12:39:19.904Z,1.30
2019-03-09T12:40:19.991Z,1.30
2019-03-09T12:41:20.123Z,1.10
2019-03-09T12:42:20.253Z,1.30
2019-03-09T12:43:20.389Z,1.30
2019-03-09T12:44:20.522Z,1.10
2019-03-09T12:45:20.649Z,1.40
2019-03-09T12:46:20.781Z,1.50
2019-03-09T12:47:20.906Z,1.20
2019-03-09T12:48:21.039Z,1.30
2019-03-09T12:49:21.175Z,1.40
2019-03-09T12:50:21.305Z,1.10
2019-03-09T12:51:21.449Z,1.30
2019-03-09T12:52:21.577Z,1.20
2019-03-09T12:53:21.704Z,1.40
2019-03-09T12:54:21.841Z,1.40
2019-03-09T12:55:21.972Z,1.10
2019-03-09T12:56:22.105Z,1.60
2019-03-09T12:57:22.247Z,1.50
2019-03-09T12:58:22.358Z,2.20
2019-03-09T12:59:22.514Z,2.10
2019-03-09T13:00:22.629Z,1.50
2019-03-09T13:01:22.746Z,1.30
2019-03-09T13:02:22.882Z,1.30
2019-03-09T13:03:23.028Z,1.40
2019-03-09T13:04:23.130Z,1.30
2019-03-09T13:05:23.268Z,1.30
2019-03-09T13:06:23.411Z,1.00
2019-03-09T13:07:23.538Z,1.10
2019-03-09T13:08:23.727Z,1.10
2019-03-09T13:09:23.800Z,1.10
2019-03-09T13:10:23.942Z,1.10
2019-03-09T13:11:24.077Z,1.00
2019-03-09T13:12:24.207Z,1.10
2019-03-09T13:13:24.344Z,1.10
2019-03-09T13:14:24.480Z,1.00
2019-03-09T13:15:24.610Z,1.20
2019-03-09T13:16:24.749Z,1.30
2019-03-09T13:17:24.884Z,1.10
2019-03-09T13:18:25.035Z,1.10
2019-03-09T13:19:25.160Z,1.20
2019-03-09T13:20:25.289Z,1.10